createdAt,value
2022-08-14T00:00:25.898Z,72322.97
2022-08-14T00:01:03.920Z,72326.97
2022-08-14T00:01:54.463Z,72326.97
2022-08-14T00:02:31.283Z,72326.97
2022-08-14T00:03:04.178Z,72322.97
2022-08-14T00:03:40.643Z,72322.97
2022-08-14T00:04:34.059Z,72318.97
2022-08-14T00:05:10.473Z,72320.97
2022-08-14T00:05:44.273Z,72315.00
2022-08-14T00:06:28.375Z,72318.97
2022-08-14T00:07:01.726Z,72318.97
2022-08-14T00:07:35.610Z,72318.97
2022-08-14T00:08:43.516Z,72317.00
2022-08-14T00:09:11.949Z,72317.00
2022-08-14T00:10:02.484Z,72309.00
2022-08-14T00:10:52.533Z,72309.00
2022-08-14T00:11:31.305Z,72303.03
2022-08-14T00:12:06.088Z,72305.00
2022-08-14T00:12:56.854Z,72307.00
2022-08-14T00:13:32.914Z,72307.00
2022-08-14T00:14:05.822Z,72303.03
2022-08-14T00:14:38.498Z,72305.00
2022-08-14T00:15:15.766Z,72303.03
2022-08-14T00:15:49.710Z,72303.03
2022-08-14T00:16:41.499Z,72303.03
2022-08-14T00:17:17.345Z,72303.03
2022-08-14T00:17:54.050Z,72303.03
2022-08-14T00:19:05.535Z,72301.03
2022-08-14T00:19:25.617Z,72303.03
2022-08-14T00:19:59.817Z,72299.03
2022-08-14T00:20:41.160Z,72307.00
2022-08-14T00:21:18.342Z,72303.03
2022-08-14T00:21:55.356Z,72309.00
2022-08-14T00:22:56.777Z,72307.00
2022-08-14T00:23:23.238Z,72303.03
2022-08-14T00:23:57.134Z,72307.00
2022-08-14T00:24:34.277Z,72307.00
2022-08-14T00:25:11.354Z,72305.00
2022-08-14T00:25:54.061Z,72307.00
2022-08-14T00:26:34.185Z,72307.00
2022-08-14T00:27:06.649Z,72303.03
2022-08-14T00:27:38.991Z,72303.03
2022-08-14T00:28:18.325Z,72307.00
2022-08-14T00:28:51.061Z,72307.00
2022-08-14T00:29:25.201Z,72301.03
2022-08-14T00:30:00.646Z,72303.03
2022-08-14T00:30:32.963Z,72307.00
2022-08-14T00:31:08.106Z,72307.00
2022-08-14T00:31:45.778Z,72303.03
2022-08-14T00:32:52.811Z,72303.03
2022-08-14T00:33:15.378Z,72301.03
2022-08-14T00:33:51.779Z,72299.03
2022-08-14T00:34:36.990Z,72299.03
2022-08-14T00:35:21.393Z,72295.03
2022-08-14T00:36:36.498Z,72293.03
2022-08-14T00:37:00.491Z,72289.03
2022-08-14T00:37:34.602Z,72291.03
2022-08-14T00:38:08.254Z,72289.03
2022-08-14T00:38:43.226Z,72297.03
2022-08-14T00:39:18.216Z,72287.06
2022-08-14T00:39:51.371Z,72289.03
2022-08-14T00:40:33.590Z,72283.06
2022-08-14T00:41:10.892Z,72287.06
2022-08-14T00:41:46.399Z,72291.03
2022-08-14T00:42:52.757Z,72291.03
2022-08-14T00:43:12.827Z,72291.03
2022-08-14T00:43:49.962Z,72287.06
2022-08-14T00:44:32.208Z,72289.03
2022-08-14T00:45:09.177Z,72289.03
2022-08-14T00:45:51.670Z,72293.03
2022-08-14T00:46:33.338Z,72297.03
2022-08-14T00:47:10.589Z,72297.03
2022-08-14T00:47:45.486Z,72291.03
2022-08-14T00:48:34.263Z,72295.03
2022-08-14T00:49:14.660Z,72291.03
2022-08-14T00:49:50.769Z,72289.03
2022-08-14T00:50:23.371Z,72287.06
2022-08-14T00:51:00.918Z,72291.03
2022-08-14T00:51:36.734Z,72293.03
2022-08-14T00:52:10.961Z,72291.03
2022-08-14T00:52:50.877Z,72291.03
2022-08-14T00:53:25.576Z,72287.06
2022-08-14T00:53:58.584Z,72289.03
2022-08-14T00:54:33.633Z,72293.03
2022-08-14T00:55:08.450Z,72289.03
2022-08-14T00:55:49.416Z,72291.03
2022-08-14T00:56:21.998Z,72287.06
2022-08-14T00:57:04.261Z,72281.06
2022-08-14T00:57:39.875Z,72283.06
2022-08-14T00:58:32.472Z,72283.06
2022-08-14T00:59:06.065Z,72283.06
2022-08-14T00:59:43.658Z,72277.06
2022-08-14T01:00:34.313Z,72279.06
2022-08-14T01:01:16.738Z,72283.06
2022-08-14T01:01:49.567Z,72279.06
2022-08-14T01:02:27.609Z,72279.06
2022-08-14T01:03:03.428Z,72283.06
2022-08-14T01:03:39.712Z,72283.06
2022-08-14T01:04:51.459Z,72279.06
2022-08-14T01:05:23.628Z,72279.06
2022-08-14T01:05:57.986Z,72275.06
2022-08-14T01:06:34.224Z,72279.06
2022-08-14T01:07:10.169Z,72275.06
2022-08-14T01:07:50.349Z,72275.06
2022-08-14T01:08:52.091Z,72279.06
2022-08-14T01:09:26.754Z,72275.06
2022-08-14T01:10:02.279Z,72277.06
2022-08-14T01:10:53.222Z,72275.06
2022-08-14T01:11:31.574Z,72277.06
2022-08-14T01:12:09.185Z,72279.06
2022-08-14T01:12:43.795Z,72279.06
2022-08-14T01:13:21.201Z,72279.06
2022-08-14T01:14:00.998Z,72273.09
2022-08-14T01:14:36.433Z,72275.06
2022-08-14T01:15:14.867Z,72275.06
2022-08-14T01:15:58.591Z,72279.06
2022-08-14T01:16:37.841Z,72275.06
2022-08-14T01:17:10.252Z,72275.06
2022-08-14T01:18:04.952Z,72271.09
2022-08-14T01:18:56.207Z,72277.06
2022-08-14T01:19:49.684Z,72275.06
2022-08-14T01:20:40.999Z,72275.06
2022-08-14T01:21:17.942Z,72271.09
2022-08-14T01:21:53.760Z,72271.09
2022-08-14T01:22:26.641Z,72271.09
2022-08-14T01:23:02.502Z,72271.09
2022-08-14T01:23:46.858Z,72271.09
2022-08-14T01:24:24.777Z,72273.09
2022-08-14T01:25:04.274Z,72267.09
2022-08-14T01:25:40.109Z,72263.09
2022-08-14T01:26:23.252Z,72267.09
2022-08-14T01:27:07.354Z,72263.09
2022-08-14T01:27:56.737Z,72259.13
2022-08-14T01:28:46.562Z,72259.13
2022-08-14T01:29:48.648Z,72263.09
2022-08-14T01:30:26.566Z,72259.13
2022-08-14T01:30:59.923Z,72255.13
2022-08-14T01:31:38.855Z,72255.13
2022-08-14T01:32:11.287Z,72251.13
2022-08-14T01:32:51.391Z,72251.13
2022-08-14T01:33:29.137Z,72251.13
2022-08-14T01:35:20.561Z,72251.13
2022-08-14T01:35:20.849Z,72245.13
2022-08-14T01:36:05.405Z,72247.13
2022-08-14T01:36:46.422Z,72243.16
2022-08-14T01:37:24.790Z,72239.16
2022-08-14T01:37:58.992Z,72241.16
2022-08-14T01:38:34.420Z,72243.16
2022-08-14T01:39:14.310Z,72235.16
2022-08-14T01:39:46.745Z,72233.16
2022-08-14T01:40:25.799Z,72233.16
2022-08-14T01:41:14.743Z,72231.19
2022-08-14T01:41:58.253Z,72231.19
2022-08-14T01:42:36.161Z,72227.19
2022-08-14T01:43:15.859Z,72225.19
2022-08-14T01:43:56.570Z,72223.19
2022-08-14T01:44:33.712Z,72219.19
2022-08-14T01:45:12.816Z,72219.19
2022-08-14T01:45:57.801Z,72219.19
2022-08-14T01:46:41.474Z,72225.19
2022-08-14T01:47:22.079Z,72221.19
2022-08-14T01:48:03.444Z,72223.19
2022-08-14T01:48:37.373Z,72225.19
2022-08-14T01:49:15.356Z,72223.19
2022-08-14T01:49:59.653Z,72221.19
2022-08-14T01:50:34.111Z,72223.19
2022-08-14T01:51:19.002Z,72223.19
2022-08-14T01:51:56.990Z,72221.19
2022-08-14T01:52:59.857Z,72227.19
2022-08-14T01:53:35.695Z,72223.19
2022-08-14T01:54:14.176Z,72223.19
2022-08-14T01:54:46.817Z,72217.19
2022-08-14T01:55:32.493Z,72219.19
2022-08-14T01:56:12.123Z,72215.22
2022-08-14T01:56:55.772Z,72213.22
2022-08-14T01:57:49.697Z,72205.22
2022-08-14T01:58:28.871Z,72207.22
2022-08-14T01:59:07.065Z,72207.22
2022-08-14T01:59:44.717Z,72207.22
2022-08-14T02:00:18.826Z,72211.22
2022-08-14T02:00:56.486Z,72211.22
2022-08-14T02:01:29.478Z,72215.22
2022-08-14T02:02:14.711Z,72215.22
2022-08-14T02:02:54.958Z,72213.22
2022-08-14T02:03:30.817Z,72211.22
2022-08-14T02:04:03.682Z,72211.22
2022-08-14T02:04:40.686Z,72203.22
2022-08-14T02:05:35.644Z,72207.22
2022-08-14T02:06:32.345Z,72205.22
2022-08-14T02:07:07.112Z,72205.22
2022-08-14T02:08:08.557Z,72207.22
2022-08-14T02:08:52.497Z,72207.22
2022-08-14T02:09:28.484Z,72211.22
2022-08-14T02:10:06.499Z,72207.22
2022-08-14T02:10:46.739Z,72215.22
2022-08-14T02:11:22.594Z,72211.22
2022-08-14T02:11:57.560Z,72213.22
2022-08-14T02:12:31.042Z,72211.22
2022-08-14T02:13:08.327Z,72211.22
2022-08-14T02:13:40.814Z,72215.22
2022-08-14T02:14:31.647Z,72209.22
2022-08-14T02:15:05.203Z,72213.22
2022-08-14T02:15:41.448Z,72215.22
2022-08-14T02:16:26.419Z,72213.22
2022-08-14T02:16:59.145Z,72205.22
2022-08-14T02:17:34.353Z,72205.22
2022-08-14T02:18:09.610Z,72203.22
2022-08-14T02:18:42.144Z,72211.22
2022-08-14T02:19:22.478Z,72205.22
2022-08-14T02:19:55.953Z,72201.25
2022-08-14T02:20:30.025Z,72205.22
2022-08-14T02:21:04.481Z,72207.22
2022-08-14T02:21:43.489Z,72205.22
2022-08-14T02:22:32.733Z,72205.22
2022-08-14T02:23:09.046Z,72203.22
2022-08-14T02:23:44.074Z,72205.22
2022-08-14T02:24:39.043Z,72203.22
2022-08-14T02:25:16.696Z,72199.25
2022-08-14T02:25:54.591Z,72203.22
2022-08-14T02:26:30.872Z,72199.25
2022-08-14T02:28:23.364Z,72211.22
2022-08-14T02:28:23.806Z,72203.22
2022-08-14T02:28:57.141Z,72201.25
2022-08-14T02:29:59.397Z,72203.22
2022-08-14T02:30:31.352Z,72203.22
2022-08-14T02:31:03.927Z,72203.22
2022-08-14T02:31:44.097Z,72199.25
2022-08-14T02:32:30.597Z,72199.25
2022-08-14T02:33:09.245Z,72203.22
2022-08-14T02:33:43.609Z,72203.22
2022-08-14T02:34:26.070Z,72203.22
2022-08-14T02:35:00.847Z,72203.22
2022-08-14T02:35:33.460Z,72203.22
2022-08-14T02:37:03.422Z,72207.22
2022-08-14T02:37:10.077Z,72203.22
2022-08-14T02:37:47.949Z,72203.22
2022-08-14T02:38:30.243Z,72207.22
2022-08-14T02:39:05.771Z,72209.22
2022-08-14T02:39:40.488Z,72209.22
2022-08-14T02:40:12.952Z,72211.22
2022-08-14T02:40:48.937Z,72215.22
2022-08-14T02:41:22.134Z,72213.22
2022-08-14T02:42:00.814Z,72215.22
2022-08-14T02:42:39.426Z,72215.22
2022-08-14T02:43:12.908Z,72215.22
2022-08-14T02:43:46.204Z,72215.22
2022-08-14T02:44:29.591Z,72211.22
2022-08-14T02:45:02.374Z,72211.22
2022-08-14T02:45:38.713Z,72211.22
2022-08-14T02:46:27.015Z,72217.19
2022-08-14T02:47:07.129Z,72235.16
2022-08-14T02:47:57.301Z,72247.13
2022-08-14T02:49:01.485Z,72257.13
2022-08-14T02:49:33.942Z,72259.13
2022-08-14T02:50:08.200Z,72259.13
2022-08-14T02:50:42.174Z,72259.13
2022-08-14T02:51:30.438Z,72259.13
2022-08-14T02:52:26.560Z,72259.13
2022-08-14T02:53:02.826Z,72259.13
2022-08-14T02:53:45.402Z,72263.09
2022-08-14T02:54:19.875Z,72259.13
2022-08-14T02:54:52.604Z,72263.09
2022-08-14T02:55:27.676Z,72267.09
2022-08-14T02:56:03.236Z,72271.09
2022-08-14T02:57:16.396Z,72273.09
2022-08-14T02:58:02.940Z,72275.06
2022-08-14T02:58:42.332Z,72275.06
2022-08-14T02:59:16.102Z,72275.06
2022-08-14T02:59:49.493Z,72279.06
2022-08-14T03:00:26.019Z,72283.06
2022-08-14T03:01:02.315Z,72279.06
2022-08-14T03:01:50.433Z,72285.06
2022-08-14T03:02:48.777Z,72279.06
2022-08-14T03:03:23.790Z,72285.06
2022-08-14T03:04:00.628Z,72285.06
2022-08-14T03:04:33.142Z,72287.06
2022-08-14T03:05:07.565Z,72283.06
2022-08-14T03:05:42.758Z,72291.03
2022-08-14T03:06:20.619Z,72291.03
2022-08-14T03:07:10.210Z,72289.03
2022-08-14T03:07:42.539Z,72287.06
2022-08-14T03:08:15.191Z,72287.06
2022-08-14T03:08:54.141Z,72291.03
2022-08-14T03:09:41.664Z,72291.03
2022-08-14T03:10:32.350Z,72291.03
2022-08-14T03:11:09.605Z,72291.03
2022-08-14T03:11:45.078Z,72289.03
2022-08-14T03:12:31.458Z,72293.03
2022-08-14T03:13:06.332Z,72287.06
2022-08-14T03:13:51.685Z,72291.03
2022-08-14T03:14:28.757Z,72287.06
2022-08-14T03:15:14.170Z,72287.06
2022-08-14T03:15:55.231Z,72285.06
2022-08-14T03:16:36.386Z,72283.06
2022-08-14T03:17:15.340Z,72287.06
2022-08-14T03:17:57.542Z,72285.06
2022-08-14T03:18:33.462Z,72279.06
2022-08-14T03:19:07.904Z,72283.06
2022-08-14T03:19:44.265Z,72281.06
2022-08-14T03:20:19.928Z,72277.06
2022-08-14T03:20:55.149Z,72279.06
2022-08-14T03:21:34.411Z,72277.06
2022-08-14T03:22:17.849Z,72283.06
2022-08-14T03:22:51.610Z,72275.06
2022-08-14T03:23:23.981Z,72275.06
2022-08-14T03:24:21.707Z,72275.06
2022-08-14T03:24:55.773Z,72277.06
2022-08-14T03:25:31.197Z,72277.06
2022-08-14T03:26:08.798Z,72275.06
2022-08-14T03:26:47.593Z,72275.06
2022-08-14T03:27:35.461Z,72271.09
2022-08-14T03:28:32.931Z,72279.06
2022-08-14T03:29:13.878Z,72279.06
2022-08-14T03:29:49.971Z,72279.06
2022-08-14T03:30:39.554Z,72281.06
2022-08-14T03:31:16.055Z,72283.06
2022-08-14T03:31:51.362Z,72287.06
2022-08-14T03:32:30.522Z,72287.06
2022-08-14T03:33:08.170Z,72291.03
2022-08-14T03:33:41.232Z,72283.06
2022-08-14T03:34:24.374Z,72287.06
2022-08-14T03:35:09.520Z,72285.06
2022-08-14T03:37:28.368Z,72289.03
2022-08-14T03:37:39.395Z,72285.06
2022-08-14T03:39:10.382Z,72283.06
2022-08-14T03:39:12.372Z,72285.06
2022-08-14T03:39:40.589Z,72285.06
2022-08-14T03:40:18.304Z,72291.03
2022-08-14T03:40:51.041Z,72287.06
2022-08-14T03:41:28.794Z,72291.03
2022-08-14T03:42:19.188Z,72289.03
2022-08-14T03:42:55.290Z,72287.06
2022-08-14T03:43:32.615Z,72287.06
2022-08-14T03:45:18.931Z,72287.06
2022-08-14T03:45:19.030Z,72291.03
2022-08-14T03:46:01.326Z,72283.06
2022-08-14T03:46:54.446Z,72287.06
2022-08-14T03:47:50.468Z,72283.06
2022-08-14T03:48:30.166Z,72283.06
2022-08-14T03:49:07.362Z,72283.06
2022-08-14T03:49:49.712Z,72279.06
2022-08-14T03:50:31.393Z,72279.06
2022-08-14T03:51:10.358Z,72283.06
2022-08-14T03:51:44.238Z,72279.06
2022-08-14T03:52:38.110Z,72281.06
2022-08-14T03:53:15.076Z,72279.06
2022-08-14T03:53:48.099Z,72283.06
2022-08-14T03:54:21.953Z,72283.06
2022-08-14T03:54:59.805Z,72287.06
2022-08-14T03:55:32.151Z,72285.06
2022-08-14T03:56:06.353Z,72291.03
2022-08-14T03:56:45.344Z,72289.03
2022-08-14T03:57:23.864Z,72287.06
2022-08-14T03:57:56.269Z,72293.03
2022-08-14T03:58:36.764Z,72289.03
2022-08-14T03:59:18.089Z,72291.03
2022-08-14T03:59:50.816Z,72297.03
2022-08-14T04:00:43.426Z,72293.03
2022-08-14T04:01:19.574Z,72299.03
2022-08-14T04:01:53.927Z,72295.03
2022-08-14T04:02:37.429Z,72297.03
2022-08-14T04:03:10.832Z,72291.03
2022-08-14T04:03:43.220Z,72289.03
2022-08-14T04:04:18.621Z,72287.06
2022-08-14T04:04:51.481Z,72299.03
2022-08-14T04:05:23.863Z,72283.06
2022-08-14T04:05:59.067Z,72287.06
2022-08-14T04:06:33.976Z,72289.03
2022-08-14T04:07:14.958Z,72289.03
2022-08-14T04:08:10.833Z,72289.03
2022-08-14T04:08:46.404Z,72287.06
2022-08-14T04:09:24.450Z,72293.03
2022-08-14T04:10:04.794Z,72287.06
2022-08-14T04:10:38.616Z,72291.03
2022-08-14T04:11:20.781Z,72287.06
2022-08-14T04:11:53.096Z,72291.03
2022-08-14T04:12:26.174Z,72291.03
2022-08-14T04:13:03.572Z,72291.03
2022-08-14T04:13:39.477Z,72287.06
2022-08-14T04:14:16.933Z,72287.06
2022-08-14T04:14:49.289Z,72283.06
2022-08-14T04:15:23.541Z,72283.06
2022-08-14T04:16:01.939Z,72283.06
2022-08-14T04:16:37.310Z,72283.06
2022-08-14T04:17:14.501Z,72283.06
2022-08-14T04:17:48.131Z,72275.06
2022-08-14T04:18:21.976Z,72283.06
2022-08-14T04:19:02.337Z,72277.06
2022-08-14T04:19:36.478Z,72275.06
2022-08-14T04:20:10.137Z,72279.06
2022-08-14T04:20:54.982Z,72275.06
2022-08-14T04:21:30.808Z,72277.06
2022-08-14T04:22:16.608Z,72277.06
2022-08-14T04:22:51.271Z,72277.06
2022-08-14T04:23:29.373Z,72277.06
2022-08-14T04:24:07.994Z,72275.06
2022-08-14T04:24:42.129Z,72275.06
2022-08-14T04:25:17.394Z,72275.06
2022-08-14T04:25:54.107Z,72279.06
2022-08-14T04:26:42.693Z,72279.06
2022-08-14T04:27:18.539Z,72279.06
2022-08-14T04:28:02.178Z,72273.09
2022-08-14T04:29:05.461Z,72275.06
2022-08-14T04:29:32.680Z,72279.06
2022-08-14T04:30:07.034Z,72281.06
2022-08-14T04:30:42.221Z,72277.06
2022-08-14T04:31:17.262Z,72279.06
2022-08-14T04:32:58.522Z,72279.06
2022-08-14T04:33:13.470Z,72283.06
2022-08-14T04:33:44.799Z,72283.06
2022-08-14T04:34:24.089Z,72283.06
2022-08-14T04:35:07.229Z,72283.06
2022-08-14T04:35:55.274Z,72283.06
2022-08-14T04:36:29.279Z,72279.06
2022-08-14T04:37:22.227Z,72275.06
2022-08-14T04:38:36.442Z,72279.06
2022-08-14T04:39:19.916Z,72279.06
2022-08-14T04:40:08.834Z,72275.06
2022-08-14T04:40:58.876Z,72275.06
2022-08-14T04:41:47.546Z,72275.06
2022-08-14T04:42:34.805Z,72279.06
2022-08-14T04:43:25.550Z,72273.09
2022-08-14T04:44:00.533Z,72269.09
2022-08-14T04:44:36.758Z,72275.06
2022-08-14T04:45:09.895Z,72265.09
2022-08-14T04:45:44.890Z,72271.09
2022-08-14T04:46:56.025Z,72269.09
2022-08-14T04:47:38.266Z,72269.09
2022-08-14T04:48:38.855Z,72271.09
2022-08-14T04:49:15.246Z,72271.09
2022-08-14T04:49:56.895Z,72271.09
2022-08-14T04:50:44.860Z,72271.09
2022-08-14T04:51:22.501Z,72275.06
2022-08-14T04:51:56.408Z,72275.06
2022-08-14T04:52:28.951Z,72277.06
2022-08-14T04:53:01.265Z,72271.09
2022-08-14T04:53:42.753Z,72277.06
2022-08-14T04:54:17.264Z,72275.06
2022-08-14T04:54:49.645Z,72271.09
2022-08-14T04:55:24.601Z,72275.06
2022-08-14T04:56:03.415Z,72275.06
2022-08-14T04:56:41.121Z,72275.06
2022-08-14T04:57:15.073Z,72271.09
2022-08-14T04:57:49.094Z,72271.09
2022-08-14T04:58:32.921Z,72267.09
2022-08-14T04:59:10.287Z,72271.09
2022-08-14T04:59:46.008Z,72271.09
2022-08-14T05:00:18.405Z,72275.06
2022-08-14T05:00:52.128Z,72271.09
2022-08-14T05:01:27.529Z,72269.09
2022-08-14T05:02:00.261Z,72271.09
2022-08-14T05:02:34.780Z,72271.09
2022-08-14T05:03:11.490Z,72269.09
2022-08-14T05:03:44.410Z,72269.09
2022-08-14T05:04:20.242Z,72267.09
2022-08-14T05:04:56.893Z,72271.09
2022-08-14T05:05:32.269Z,72267.09
2022-08-14T05:06:07.426Z,72267.09
2022-08-14T05:07:02.069Z,72271.09
2022-08-14T05:07:54.324Z,72273.09
2022-08-14T05:08:32.251Z,72275.06
2022-08-14T05:09:21.894Z,72275.06
2022-08-14T05:09:54.242Z,72271.09
2022-08-14T05:10:32.145Z,72271.09
2022-08-14T05:11:12.023Z,72275.06
2022-08-14T05:11:46.093Z,72271.09
2022-08-14T05:13:11.239Z,72273.09
2022-08-14T05:13:15.829Z,72275.06
2022-08-14T05:14:53.186Z,72275.06
2022-08-14T05:15:29.577Z,72271.09
2022-08-14T05:16:06.839Z,72273.09
2022-08-14T05:16:46.840Z,72279.06
2022-08-14T05:17:19.716Z,72271.09
2022-08-14T05:18:03.795Z,72269.09
2022-08-14T05:19:18.182Z,72273.09
2022-08-14T05:21:57.724Z,72279.06
2022-08-14T05:21:57.919Z,72279.06
2022-08-14T05:22:00.223Z,72279.06
2022-08-14T05:22:26.994Z,72283.06
2022-08-14T05:22:59.938Z,72283.06
2022-08-14T05:23:35.561Z,72283.06
2022-08-14T05:24:17.478Z,72283.06
2022-08-14T05:24:51.324Z,72285.06
2022-08-14T05:25:23.861Z,72285.06
2022-08-14T05:26:02.024Z,72287.06
2022-08-14T05:26:40.570Z,72287.06
2022-08-14T05:27:14.735Z,72285.06
2022-08-14T05:27:49.846Z,72287.06
2022-08-14T05:28:28.394Z,72287.06
2022-08-14T05:29:03.342Z,72291.03
2022-08-14T05:29:45.076Z,72293.03
2022-08-14T05:30:19.766Z,72289.03
2022-08-14T05:30:56.201Z,72287.06
2022-08-14T05:31:39.373Z,72291.03
2022-08-14T05:32:13.558Z,72291.03
2022-08-14T05:32:50.311Z,72291.03
2022-08-14T05:33:24.868Z,72291.03
2022-08-14T05:33:57.286Z,72295.03
2022-08-14T05:34:32.643Z,72291.03
2022-08-14T05:35:06.680Z,72291.03
2022-08-14T05:35:42.428Z,72291.03
2022-08-14T05:36:17.737Z,72291.03
2022-08-14T05:36:50.749Z,72287.06
2022-08-14T05:37:34.898Z,72287.06
2022-08-14T05:38:11.053Z,72287.06
2022-08-14T05:39:03.949Z,72291.03
2022-08-14T05:39:39.012Z,72285.06
2022-08-14T05:40:13.495Z,72291.03
2022-08-14T05:40:47.009Z,72289.03
2022-08-14T05:41:22.382Z,72283.06
2022-08-14T05:41:57.345Z,72291.03
2022-08-14T05:42:33.914Z,72285.06
2022-08-14T05:43:09.466Z,72283.06
2022-08-14T05:43:47.727Z,72283.06
2022-08-14T05:44:21.741Z,72287.06
2022-08-14T05:44:54.226Z,72279.06
2022-08-14T05:45:31.066Z,72287.06
2022-08-14T05:46:03.733Z,72283.06
2022-08-14T05:46:39.181Z,72283.06
2022-08-14T05:47:14.098Z,72285.06
2022-08-14T05:47:50.826Z,72287.06
2022-08-14T05:48:33.477Z,72293.03
2022-08-14T05:49:09.059Z,72287.06
2022-08-14T05:49:41.467Z,72291.03
2022-08-14T05:50:17.438Z,72287.06
2022-08-14T05:50:55.042Z,72291.03
2022-08-14T05:51:28.662Z,72287.06
2022-08-14T05:52:09.859Z,72297.03
2022-08-14T05:52:42.450Z,72293.03
2022-08-14T05:53:17.438Z,72293.03
2022-08-14T05:54:01.872Z,72291.03
2022-08-14T05:54:42.556Z,72291.03
2022-08-14T05:55:22.113Z,72287.06
2022-08-14T05:55:56.558Z,72287.06
2022-08-14T05:56:29.186Z,72299.03
2022-08-14T05:57:07.242Z,72287.06
2022-08-14T05:57:49.865Z,72285.06
2022-08-14T05:58:23.389Z,72283.06
2022-08-14T05:59:16.731Z,72287.06
2022-08-14T05:59:49.150Z,72287.06
2022-08-14T06:00:28.554Z,72291.03
2022-08-14T06:01:03.994Z,72287.06
2022-08-14T06:01:38.545Z,72287.06
2022-08-14T06:02:13.796Z,72287.06
2022-08-14T06:02:48.687Z,72287.06
2022-08-14T06:03:22.701Z,72295.03
2022-08-14T06:03:59.783Z,72293.03
2022-08-14T06:04:32.581Z,72293.03
2022-08-14T06:05:05.762Z,72293.03
2022-08-14T06:05:43.795Z,72297.03
2022-08-14T06:06:16.217Z,72291.03
2022-08-14T06:06:48.610Z,72295.03
2022-08-14T06:07:20.930Z,72291.03
2022-08-14T06:07:57.373Z,72293.03
2022-08-14T06:08:41.148Z,72299.03
2022-08-14T06:09:16.753Z,72299.03
2022-08-14T06:09:51.083Z,72301.03
2022-08-14T06:10:25.538Z,72303.03
2022-08-14T06:11:05.793Z,72299.03
2022-08-14T06:11:38.177Z,72301.03
2022-08-14T06:12:13.109Z,72303.03
2022-08-14T06:13:07.039Z,72307.00
2022-08-14T06:13:45.609Z,72299.03
2022-08-14T06:14:21.502Z,72303.03
2022-08-14T06:14:59.295Z,72305.00
2022-08-14T06:15:31.602Z,72303.03
2022-08-14T06:16:04.638Z,72311.00
2022-08-14T06:16:42.918Z,72311.00
2022-08-14T06:17:25.884Z,72311.00
2022-08-14T06:18:00.205Z,72311.00
2022-08-14T06:18:36.657Z,72311.00
2022-08-14T06:19:11.316Z,72311.00
2022-08-14T06:19:50.473Z,72307.00
2022-08-14T06:20:25.813Z,72307.00
2022-08-14T06:20:58.121Z,72311.00
2022-08-14T06:21:31.464Z,72311.00
2022-08-14T06:22:08.017Z,72311.00
2022-08-14T06:22:41.425Z,72311.00
2022-08-14T06:23:13.806Z,72309.00
2022-08-14T06:23:49.563Z,72307.00
2022-08-14T06:24:21.909Z,72309.00
2022-08-14T06:24:54.425Z,72307.00
2022-08-14T06:25:30.468Z,72313.00
2022-08-14T06:26:03.446Z,72309.00
2022-08-14T06:26:35.942Z,72311.00
2022-08-14T06:27:15.166Z,72307.00
2022-08-14T06:27:49.470Z,72307.00
2022-08-14T06:28:27.851Z,72307.00
2022-08-14T06:29:03.227Z,72305.00
2022-08-14T06:29:36.534Z,72303.03
2022-08-14T06:30:12.766Z,72291.03
2022-08-14T06:30:50.878Z,72279.06
2022-08-14T06:31:23.197Z,72273.09
2022-08-14T06:32:00.433Z,72271.09
2022-08-14T06:32:52.911Z,72261.09
2022-08-14T06:35:01.427Z,72251.13
2022-08-14T06:35:04.644Z,72247.13
2022-08-14T06:35:14.724Z,72235.16
2022-08-14T06:35:50.909Z,72231.19
2022-08-14T06:36:23.320Z,72227.19
2022-08-14T06:36:56.702Z,72227.19
2022-08-14T06:37:41.893Z,72223.19
2022-08-14T06:38:17.456Z,72231.19
2022-08-14T06:38:54.445Z,72227.19
2022-08-14T06:39:36.331Z,72231.19
2022-08-14T06:40:25.775Z,72227.19
2022-08-14T06:41:03.038Z,72219.19
2022-08-14T06:41:59.346Z,72227.19
2022-08-14T06:42:34.830Z,72223.19
2022-08-14T06:43:11.720Z,72223.19
2022-08-14T06:43:48.206Z,72227.19
2022-08-14T06:44:21.746Z,72219.19
2022-08-14T06:45:06.150Z,72223.19
2022-08-14T06:45:40.647Z,72219.19
2022-08-14T06:46:32.585Z,72217.19
2022-08-14T06:47:09.239Z,72215.22
2022-08-14T06:47:44.137Z,72213.22
2022-08-14T06:48:21.630Z,72211.22
2022-08-14T06:48:54.025Z,72215.22
2022-08-14T06:49:27.604Z,72207.22
2022-08-14T06:50:05.381Z,72215.22
2022-08-14T06:50:41.133Z,72211.22
2022-08-14T06:51:17.621Z,72209.22
2022-08-14T06:51:53.848Z,72207.22
2022-08-14T06:52:26.377Z,72203.22
2022-08-14T06:53:04.317Z,72207.22
2022-08-14T06:53:37.540Z,72203.22
2022-08-14T06:54:09.886Z,72203.22
2022-08-14T06:54:44.843Z,72201.25
2022-08-14T06:55:20.742Z,72199.25
2022-08-14T06:56:01.880Z,72201.25
2022-08-14T06:56:37.414Z,72193.25
2022-08-14T06:57:10.910Z,72187.28
2022-08-14T06:57:46.992Z,72179.28
2022-08-14T06:58:28.756Z,72167.31
2022-08-14T06:59:01.963Z,72167.31
2022-08-14T06:59:37.618Z,72163.31
2022-08-14T07:00:22.179Z,72159.31
2022-08-14T07:01:14.757Z,72163.31
2022-08-14T07:02:03.104Z,72159.31
2022-08-14T07:02:50.438Z,72155.34
2022-08-14T07:03:40.508Z,72151.34
2022-08-14T07:04:30.151Z,72153.34
2022-08-14T07:05:23.103Z,72147.34
2022-08-14T07:05:58.812Z,72151.34
2022-08-14T07:06:45.517Z,72149.34
2022-08-14T07:07:22.717Z,72149.34
2022-08-14T07:07:57.870Z,72149.34
2022-08-14T07:08:34.458Z,72153.34
2022-08-14T07:09:10.279Z,72155.34
2022-08-14T07:09:50.499Z,72151.34
2022-08-14T07:10:26.083Z,72143.38
2022-08-14T07:11:01.480Z,72143.38
2022-08-14T07:11:33.894Z,72143.38
2022-08-14T07:12:54.607Z,72139.38
2022-08-14T07:13:05.400Z,72143.38
2022-08-14T07:13:40.922Z,72135.38
2022-08-14T07:14:14.534Z,72135.38
2022-08-14T07:14:48.270Z,72133.38
2022-08-14T07:15:23.510Z,72127.41
2022-08-14T07:16:05.692Z,72129.41
2022-08-14T07:16:40.760Z,72129.41
2022-08-14T07:17:14.344Z,72127.41
2022-08-14T07:17:52.463Z,72123.41
2022-08-14T07:18:30.533Z,72121.41
2022-08-14T07:19:02.930Z,72121.41
2022-08-14T07:19:35.440Z,72117.41
2022-08-14T07:20:11.251Z,72115.44
2022-08-14T07:20:46.382Z,72115.44
2022-08-14T07:21:21.602Z,72117.41
2022-08-14T07:21:54.169Z,72121.41
2022-08-14T07:22:32.920Z,72121.41
2022-08-14T07:23:21.676Z,72115.44
2022-08-14T07:23:55.034Z,72115.44
2022-08-14T07:24:31.891Z,72119.41
2022-08-14T07:25:07.973Z,72111.44
2022-08-14T07:25:43.788Z,72111.44
2022-08-14T07:26:19.297Z,72111.44
2022-08-14T07:26:52.359Z,72107.44
2022-08-14T07:27:25.056Z,72107.44
2022-08-14T07:28:01.337Z,72111.44
2022-08-14T07:28:43.383Z,72111.44
2022-08-14T07:29:22.757Z,72111.44
2022-08-14T07:29:58.262Z,72109.44
2022-08-14T07:30:34.025Z,72113.44
2022-08-14T07:31:11.915Z,72111.44
2022-08-14T07:31:44.315Z,72115.44
2022-08-14T07:32:22.160Z,72115.44
2022-08-14T07:33:09.164Z,72115.44
2022-08-14T07:33:49.972Z,72115.44
2022-08-14T07:34:36.291Z,72117.41
2022-08-14T07:35:13.441Z,72119.41
2022-08-14T07:35:57.534Z,72119.41
2022-08-14T07:36:33.760Z,72117.41
2022-08-14T07:37:06.787Z,72115.44
2022-08-14T07:37:39.068Z,72123.41
2022-08-14T07:38:21.113Z,72121.41
2022-08-14T07:38:53.451Z,72123.41
2022-08-14T07:39:28.554Z,72119.41
2022-08-14T07:40:01.780Z,72123.41
2022-08-14T07:40:34.902Z,72117.41
2022-08-14T07:41:14.704Z,72119.41
2022-08-14T07:41:48.921Z,72115.44
2022-08-14T07:42:22.782Z,72123.41
2022-08-14T07:42:57.777Z,72123.41